Terminal Aerodrome Forecast
Issued by NWS Central Illinois

Home | Current Version | Previous Version | Text Only | Print | Product List | Glossary On
Versions: 1 2 3 4 5 6 7 8 9 10 11 12 13 14 15 16 17 18
000
FTUS43 KILX 010521 CCA
TAFSPI
TAF COR
KSPI 010521Z 0106/0206 VRB03KT P6SM VCTS SCT060CB BKN100
      TEMPO 0106/0108 4SM TSRA BR BKN040CB
     FM010800 VRB03KT P6SM VCTS SCT050CB BKN120
     FM011200 18004KT P6SM -SHRA BKN080
      TEMPO 0112/0114 TSRA BKN040CB
     FM011400 25006KT P6SM -SHRA BKN090
      TEMPO 0114/0116 2SM TSRA BKN040CB
     FM011800 26008KT P6SM VCSH BKN060
     FM012200 30006KT P6SM SCT200=

USA.gov is the U.S. government's official web portal to all federal, state and local government web resources and services.